Portada
METAR-TAF:

METAR-TAF

Aeroports :

Rapid City Regional Airport

Rapid City, Dakota del Sud, Estats Units d'Amèrica

latitud: 44-02-44N, longitud: 103-03-14W, altitud: 976 m

Observació

L'informe es va fer fa 1 hora i 5 minuts, a les 02:52 UTC
Vent 3 kt del Oest/Sud-Oest
Temperatura 2°C
Humitat 64%
Pressió 1008 hPa
Visibilitat: 16.1 km
Cel clar

METAR: KRAP 080252Z 24003KT 10SM CLR 02/M04 A2977 RMK AO2 SLP107 T00171044 53004

Hora: 20:57 (03:57 UTC)

Pronòstic

L'informe es va fer fa 4 hores i 37 minuts, a les 23:20 UTC
Pronòstic vàlid del 08 a les 00 UTC al 08 a les 24 UTC
Vent 5 kt amb direcció variable
Visibilitat: 10 km
Cel ennuvolat a una alçada de 15000 ft
A partir de les 08 a les 1700 UTC
Vent 8 kt del Est/Nord-Est
Visibilitat: 10 km
Cel ennuvolat a una alçada de 10000 ft
A partir de les 08 a les 2300 UTC
Vent 11 kt del Nord-Est
Visibilitat: 10 km
Cel ennuvolat a una alçada de 2000 ft

TAF: KRAP 072320Z 0800/0824 VRB05KT P6SM BKN150 FM081700 07008KT P6SM BKN100 FM082300 04011KT P6SM BKN020

Observacions i pronòstics meteorològics de més de 4000 aeroports (METAR i TAF).

Les estacions disponibles són els punts grocs i vermells al mapa.

Posi el ratolí al punt desitjat per veure el nom de l'estació.

Feu clic per veure les observacions i els pronòstics meteorològics.

Per canviar el mapa: feu clic els botons verds amb una creu de color negre per apropar; al botó verd amb un guió per allunyar la imatge; o en les fletxes verdes per a mapes adjacents.


METAR-TAF: